createdAt,value
2022-08-23T00:56:26.108Z,2.20
2022-08-23T02:34:24.768Z,2.90
2022-08-23T02:43:11.340Z,2.90
2022-08-23T03:29:57.837Z,3.30
2022-08-23T04:38:25.035Z,10.80
2022-08-23T05:12:32.022Z,5.50
2022-08-23T05:42:12.924Z,4.80
2022-08-23T06:41:26.124Z,5.60
2022-08-23T06:46:09.440Z,5.20
2022-08-23T06:59:03.000Z,5.90
2022-08-23T07:03:36.484Z,4.50
2022-08-23T07:08:01.609Z,4.90
2022-08-23T07:16:33.625Z,5.20
2022-08-23T07:21:07.048Z,5.50
2022-08-23T07:25:39.847Z,4.90
2022-08-23T07:30:05.256Z,6.20
2022-08-23T07:34:48.293Z,5.80
2022-08-23T07:39:21.689Z,5.90
2022-08-23T07:43:52.222Z,6.50
2022-08-23T07:48:43.382Z,6.40
2022-08-23T07:53:17.111Z,7.20
2022-08-23T07:58:10.810Z,6.30
2022-08-23T08:03:06.706Z,7.40
2022-08-23T08:07:56.320Z,6.30
2022-08-23T08:12:23.470Z,6.20
2022-08-23T08:17:11.631Z,6.20
2022-08-23T08:21:34.243Z,7.20
2022-08-23T08:26:08.090Z,6.50
2022-08-23T08:30:54.706Z,7.40
2022-08-23T08:35:27.484Z,6.90
2022-08-23T08:40:00.628Z,5.90
2022-08-23T08:44:39.492Z,6.80
2022-08-23T08:49:22.040Z,6.40
2022-08-23T08:53:58.037Z,6.80
2022-08-23T08:58:31.332Z,5.30
2022-08-23T09:03:07.758Z,5.70
2022-08-23T09:07:31.963Z,4.70
2022-08-23T09:12:06.801Z,4.90
2022-08-23T09:16:38.328Z,4.50
2022-08-23T09:21:18.902Z,5.60
2022-08-23T09:25:52.260Z,5.00
2022-08-23T09:30:17.778Z,5.00
2022-08-23T09:34:50.714Z,4.50
2022-08-23T09:39:39.058Z,4.80
2022-08-23T09:44:13.695Z,4.70
2022-08-23T09:48:20.038Z,4.70
2022-08-23T09:52:52.845Z,6.20
2022-08-23T09:57:10.142Z,5.10
2022-08-23T10:01:46.818Z,4.90
2022-08-23T10:06:19.166Z,5.30
2022-08-23T10:15:16.911Z,5.50
2022-08-23T10:19:51.327Z,5.00
2022-08-23T10:23:45.451Z,4.40
2022-08-23T10:28:02.671Z,5.00
2022-08-23T10:32:20.273Z,5.30
2022-08-23T10:36:08.311Z,5.20
2022-08-23T10:40:03.515Z,5.00
2022-08-23T10:55:28.773Z,5.10
2022-08-23T11:00:01.801Z,4.80
2022-08-23T11:04:38.887Z,5.80
2022-08-23T11:09:39.514Z,6.20
2022-08-23T11:18:51.459Z,5.50
2022-08-23T11:23:15.669Z,5.60
2022-08-23T11:27:48.658Z,5.50
2022-08-23T11:32:19.698Z,5.50
2022-08-23T11:36:55.710Z,6.50
2022-08-23T11:42:00.503Z,5.50
2022-08-23T11:46:56.466Z,5.50
2022-08-23T11:51:45.427Z,5.80
2022-08-23T11:56:17.460Z,5.20
2022-08-23T12:00:52.178Z,4.60
2022-08-23T12:05:38.614Z,4.70
2022-08-23T12:10:11.700Z,4.90
2022-08-23T12:14:50.530Z,5.00
2022-08-23T12:19:24.166Z,5.30
2022-08-23T12:24:02.132Z,5.40
2022-08-23T12:28:45.163Z,5.00
2022-08-23T12:33:43.518Z,6.00
2022-08-23T12:38:41.526Z,5.50
2022-08-23T12:42:57.883Z,5.70
2022-08-23T12:47:38.477Z,5.60
2022-08-23T12:52:09.673Z,6.80
2022-08-23T12:56:42.762Z,5.70
2022-08-23T13:01:31.387Z,6.70
2022-08-23T13:05:56.848Z,6.40
2022-08-23T13:10:48.762Z,6.50
2022-08-23T13:15:27.312Z,5.90
2022-08-23T13:20:15.246Z,6.10
2022-08-23T13:25:27.313Z,6.90
2022-08-23T13:29:49.686Z,7.10
2022-08-23T13:34:07.696Z,6.20
2022-08-23T13:38:55.553Z,6.40
2022-08-23T13:43:37.794Z,5.90
2022-08-23T13:48:07.501Z,5.80
2022-08-23T13:53:10.141Z,6.40
2022-08-23T13:57:49.226Z,5.40
2022-08-23T14:02:22.267Z,5.80
2022-08-23T14:06:55.285Z,5.90
2022-08-23T14:11:42.020Z,6.30
2022-08-23T14:21:07.920Z,5.90
2022-08-23T14:25:40.951Z,5.90
2022-08-23T14:29:58.265Z,5.80
2022-08-23T14:34:23.727Z,5.30
2022-08-23T14:38:56.330Z,6.00
2022-08-23T14:43:42.769Z,8.70
2022-08-23T14:48:15.915Z,6.10
2022-08-23T14:53:03.118Z,6.10
2022-08-23T14:57:30.393Z,6.30
2022-08-23T15:02:03.500Z,6.70
2022-08-23T15:06:54.973Z,6.20
2022-08-23T15:16:39.509Z,6.20
2022-08-23T15:21:12.548Z,5.80
2022-08-23T15:25:27.569Z,5.70
2022-08-23T15:30:00.549Z,5.60
2022-08-23T15:34:33.604Z,6.40
2022-08-23T15:39:04.280Z,5.70
2022-08-23T15:43:37.105Z,9.30
2022-08-23T15:48:10.870Z,13.40
2022-08-23T15:52:36.389Z,7.60
2022-08-23T15:57:00.971Z,6.60
2022-08-23T16:01:48.444Z,6.00
2022-08-23T16:06:36.670Z,6.10
2022-08-23T16:11:10.065Z,6.40
2022-08-23T16:15:37.825Z,5.50
2022-08-23T16:20:10.988Z,6.30
2022-08-23T16:24:56.014Z,5.40
2022-08-23T16:29:30.170Z,11.70
2022-08-23T16:34:03.611Z,6.30
2022-08-23T16:38:13.110Z,6.30
2022-08-23T16:42:37.705Z,5.40
2022-08-23T16:47:11.526Z,5.70
2022-08-23T16:51:43.158Z,5.70
2022-08-23T16:56:10.580Z,6.70
2022-08-23T17:00:42.584Z,5.70
2022-08-23T17:05:15.852Z,6.00
2022-08-23T17:09:47.625Z,7.60
2022-08-23T17:14:32.506Z,6.30
2022-08-23T17:19:08.104Z,6.00
2022-08-23T17:23:41.771Z,5.70
2022-08-23T17:28:14.498Z,5.70
2022-08-23T17:32:42.614Z,5.80
2022-08-23T17:37:14.248Z,5.70
2022-08-23T17:41:44.559Z,6.70
2022-08-23T17:46:12.527Z,6.20
2022-08-23T17:50:40.024Z,6.40
2022-08-23T17:55:12.931Z,7.10
2022-08-23T17:59:40.801Z,6.30
2022-08-23T18:04:08.528Z,6.10
2022-08-23T18:08:54.955Z,5.70
2022-08-23T18:13:27.397Z,5.90
2022-08-23T18:17:59.894Z,5.50
2022-08-23T18:22:22.822Z,5.70
2022-08-23T18:31:54.718Z,8.10
2022-08-23T18:36:27.538Z,7.40
2022-08-23T18:41:06.325Z,9.80
2022-08-23T18:45:39.213Z,8.40
2022-08-23T18:50:31.110Z,7.30
2022-08-23T18:55:02.865Z,8.60
2022-08-23T18:59:36.057Z,8.30
2022-08-23T19:04:22.781Z,7.40
2022-08-23T19:08:48.643Z,8.20
2022-08-23T19:13:21.453Z,9.70
2022-08-23T19:17:53.769Z,7.40
2022-08-23T19:22:16.150Z,7.60
2022-08-23T19:26:42.227Z,6.30
2022-08-23T19:31:18.543Z,6.60
2022-08-23T19:36:04.982Z,8.00
2022-08-23T19:40:37.817Z,7.50
2022-08-23T19:45:10.551Z,7.20
2022-08-23T19:49:28.830Z,7.40
2022-08-23T19:54:02.191Z,7.00
2022-08-23T19:58:33.759Z,8.70
2022-08-23T20:03:20.207Z,7.70
2022-08-23T20:07:53.051Z,7.20
2022-08-23T20:12:26.037Z,7.60
2022-08-23T20:16:53.565Z,7.50
2022-08-23T20:21:27.140Z,8.10
2022-08-23T20:25:59.279Z,6.90
2022-08-23T20:30:24.509Z,7.80
2022-08-23T20:34:50.661Z,8.10
2022-08-23T20:39:26.179Z,8.40
2022-08-23T20:43:48.965Z,8.50
2022-08-23T20:48:14.736Z,8.10
2022-08-23T20:52:49.251Z,7.40
2022-08-23T20:57:13.113Z,7.60
2022-08-23T21:01:47.575Z,7.90
2022-08-23T21:06:13.679Z,7.60
2022-08-23T21:11:31.611Z,9.40
2022-08-23T21:16:15.752Z,8.90
2022-08-23T21:21:02.015Z,9.90
2022-08-23T21:25:48.726Z,8.20
2022-08-23T21:30:35.011Z,8.90
2022-08-23T21:39:14.480Z,8.30
2022-08-23T21:43:54.012Z,9.60
2022-08-23T21:48:26.906Z,8.70
2022-08-23T21:57:51.782Z,8.80
2022-08-23T22:02:25.861Z,8.00
2022-08-23T22:06:59.929Z,8.30
2022-08-23T22:11:33.662Z,8.40
2022-08-23T22:16:06.695Z,7.80
2022-08-23T22:20:39.645Z,8.60
2022-08-23T22:25:10.749Z,8.00
2022-08-23T22:29:20.365Z,7.70
2022-08-23T22:33:42.784Z,7.80
2022-08-23T22:38:14.151Z,7.90
2022-08-23T22:42:59.820Z,7.70
2022-08-23T22:47:33.473Z,14.00
2022-08-23T22:51:56.823Z,7.60
2022-08-23T22:56:30.153Z,7.40
2022-08-23T23:01:16.391Z,8.10
2022-08-23T23:05:51.139Z,7.90
2022-08-23T23:10:37.823Z,7.40
2022-08-23T23:15:03.172Z,8.20
2022-08-23T23:19:34.729Z,8.50
2022-08-23T23:24:21.191Z,8.40
2022-08-23T23:28:57.957Z,8.10
2022-08-23T23:33:31.127Z,8.80
2022-08-23T23:38:12.258Z,9.80
2022-08-23T23:42:45.427Z,9.10
2022-08-23T23:47:31.830Z,10.00
2022-08-23T23:52:08.433Z,8.60
2022-08-23T23:57:00.732Z,9.00
